Terminal Aerodrome Forecast
Issued by NWS

Home | Current Version | Previous Version | Text Only | Print | Product List | Glossary On
Versions: 1 2 3 4 5 6 7 8 9 10 11 12 13 14 15 16 17 18
000
FTUS41 KPBZ 270244 AAA
TAFDUJ
TAF AMD
KDUJ 270244Z 2703/2724 18007KT P6SM BKN080
     FM270700 20003KT 5SM -RA BR BKN025
     FM271100 21008KT 3SM BR BKN015
     FM271600 22010KT P6SM BKN040=

USA.gov is the U.S. government's official web portal to all federal, state and local government web resources and services.